Burlington, Texas
Current Conditions -  °F | °C
As of 10:15 AM on Friday 19 Dec 2014 (Local Time) from KT35 Reporting Station
Overcast Overcast  
Wind Chill: 50°   Ceiling: 700
Heat Index: 50°   Visibility: 10mi
Dew Point: 49°   Wind: 8mph
Humidity: 95%   Direction: 360°N
Pressure: 30.14"   Gusts: NA
Location:  31.02°N, 97°W
Report Text: KT35 191615Z AUTO 36007KT 10SM OVC007 10/10 A3014 RMK AO2 T01020095
Loading
Personal Weather Stations






























Interactive Weather Map New forecast layout! Learn more

10-Day Weather Forecast

Advertisements
Track Severe Weather on mobile